sensor_id;sensor_type;location;lat;lon;timestamp;pressure;altitude;pressure_sealevel;temperature;humidity
47761;BME280;33524;55.434;38.520;2023-05-13T00:00:43;100662.84;;;7.51;64.22
47761;BME280;33524;55.434;38.520;2023-05-13T00:03:12;100651.50;;;7.82;59.74
47761;BME280;33524;55.434;38.520;2023-05-13T00:05:40;100658.19;;;7.56;65.12
47761;BME280;33524;55.434;38.520;2023-05-13T00:08:08;100672.56;;;6.83;69.49
47761;BME280;33524;55.434;38.520;2023-05-13T00:10:37;100670.25;;;7.74;59.42
47761;BME280;33524;55.434;38.520;2023-05-13T00:13:05;100653.06;;;7.38;61.80
47761;BME280;33524;55.434;38.520;2023-05-13T00:15:33;100670.44;;;7.39;60.85
47761;BME280;33524;55.434;38.520;2023-05-13T00:18:01;100669.41;;;7.74;60.06
47761;BME280;33524;55.434;38.520;2023-05-13T00:20:29;100672.38;;;8.14;55.80
47761;BME280;33524;55.434;38.520;2023-05-13T00:22:57;100671.97;;;7.59;59.17
47761;BME280;33524;55.434;38.520;2023-05-13T00:25:26;100669.06;;;7.48;59.15
47761;BME280;33524;55.434;38.520;2023-05-13T00:27:53;100647.66;;;7.57;60.84
47761;BME280;33524;55.434;38.520;2023-05-13T00:30:22;100670.34;;;7.41;59.87
47761;BME280;33524;55.434;38.520;2023-05-13T00:32:50;100670.44;;;7.71;58.63
47761;BME280;33524;55.434;38.520;2023-05-13T00:35:18;100674.97;;;7.36;61.59
47761;BME280;33524;55.434;38.520;2023-05-13T00:37:46;100669.81;;;7.02;67.71
47761;BME280;33524;55.434;38.520;2023-05-13T00:40:24;100674.56;;;6.78;68.33
47761;BME280;33524;55.434;38.520;2023-05-13T00:42:53;100674.31;;;6.83;68.80
47761;BME280;33524;55.434;38.520;2023-05-13T00:45:21;100661.47;;;7.27;62.86
47761;BME280;33524;55.434;38.520;2023-05-13T00:47:50;100671.19;;;7.10;63.77
47761;BME280;33524;55.434;38.520;2023-05-13T00:50:18;100663.91;;;6.99;64.54
47761;BME280;33524;55.434;38.520;2023-05-13T00:52:49;100673.06;;;6.90;66.59
47761;BME280;33524;55.434;38.520;2023-05-13T00:55:17;100664.13;;;6.94;62.57
47761;BME280;33524;55.434;38.520;2023-05-13T00:57:46;100677.91;;;6.64;65.84
47761;BME280;33524;55.434;38.520;2023-05-13T01:00:15;100676.41;;;6.76;66.95
47761;BME280;33524;55.434;38.520;2023-05-13T01:10:49;100673.81;;;6.59;69.01
47761;BME280;33524;55.434;38.520;2023-05-13T01:13:23;100672.06;;;6.42;68.43
47761;BME280;33524;55.434;38.520;2023-05-13T01:18:43;100678.00;;;6.11;71.33
47761;BME280;33524;55.434;38.520;2023-05-13T01:21:12;100676.59;;;6.03;73.56
47761;BME280;33524;55.434;38.520;2023-05-13T01:23:40;100669.25;;;5.93;74.01
47761;BME280;33524;55.434;38.520;2023-05-13T01:26:08;100665.88;;;5.91;74.13
47761;BME280;33524;55.434;38.520;2023-05-13T01:28:37;100662.16;;;5.96;72.31
47761;BME280;33524;55.434;38.520;2023-05-13T01:31:06;100673.38;;;6.16;73.22
47761;BME280;33524;55.434;38.520;2023-05-13T01:33:38;100680.38;;;5.98;73.92
47761;BME280;33524;55.434;38.520;2023-05-13T01:36:08;100685.66;;;5.96;73.32
47761;BME280;33524;55.434;38.520;2023-05-13T01:38:38;100687.03;;;5.67;77.88
47761;BME280;33524;55.434;38.520;2023-05-13T01:41:08;100682.16;;;5.59;75.00
47761;BME280;33524;55.434;38.520;2023-05-13T01:43:36;100688.44;;;5.55;78.48
47761;BME280;33524;55.434;38.520;2023-05-13T01:46:11;100677.22;;;6.09;71.94
47761;BME280;33524;55.434;38.520;2023-05-13T01:48:40;100695.75;;;5.66;75.48
47761;BME280;33524;55.434;38.520;2023-05-13T01:51:09;100678.69;;;6.49;64.55
47761;BME280;33524;55.434;38.520;2023-05-13T01:53:37;100665.50;;;5.62;75.43
47761;BME280;33524;55.434;38.520;2023-05-13T01:56:07;100690.12;;;5.93;68.93
47761;BME280;33524;55.434;38.520;2023-05-13T01:58:36;100681.28;;;6.32;72.58
47761;BME280;33524;55.434;38.520;2023-05-13T02:01:04;100689.03;;;6.16;74.42
47761;BME280;33524;55.434;38.520;2023-05-13T02:03:34;100691.78;;;5.95;74.85
47761;BME280;33524;55.434;38.520;2023-05-13T02:06:02;100697.41;;;6.05;72.31
47761;BME280;33524;55.434;38.520;2023-05-13T02:08:30;100699.00;;;5.71;76.71
47761;BME280;33524;55.434;38.520;2023-05-13T02:10:59;100699.13;;;6.23;70.71
47761;BME280;33524;55.434;38.520;2023-05-13T02:13:28;100691.72;;;6.66;64.36
47761;BME280;33524;55.434;38.520;2023-05-13T02:15:57;100689.84;;;6.35;69.29
47761;BME280;33524;55.434;38.520;2023-05-13T02:18:26;100700.22;;;6.37;73.33
47761;BME280;33524;55.434;38.520;2023-05-13T02:20:54;100700.50;;;6.31;75.25
47761;BME280;33524;55.434;38.520;2023-05-13T02:23:24;100693.06;;;6.91;64.79
47761;BME280;33524;55.434;38.520;2023-05-13T02:25:52;100699.44;;;7.19;61.65
47761;BME280;33524;55.434;38.520;2023-05-13T02:28:20;100692.47;;;7.51;60.88
47761;BME280;33524;55.434;38.520;2023-05-13T02:30:48;100699.31;;;7.54;58.79
47761;BME280;33524;55.434;38.520;2023-05-13T02:33:17;100702.63;;;7.73;58.25
47761;BME280;33524;55.434;38.520;2023-05-13T02:35:45;100705.03;;;7.76;59.96
47761;BME280;33524;55.434;38.520;2023-05-13T02:38:13;100714.31;;;7.98;56.22
47761;BME280;33524;55.434;38.520;2023-05-13T02:40:41;100705.94;;;8.07;55.29
47761;BME280;33524;55.434;38.520;2023-05-13T02:43:09;100706.78;;;8.07;57.42
47761;BME280;33524;55.434;38.520;2023-05-13T02:45:39;100710.56;;;8.02;58.21
47761;BME280;33524;55.434;38.520;2023-05-13T02:48:08;100709.53;;;8.20;56.28
47761;BME280;33524;55.434;38.520;2023-05-13T02:50:38;100707.87;;;8.03;63.61
47761;BME280;33524;55.434;38.520;2023-05-13T02:53:09;100713.19;;;8.02;61.76
47761;BME280;33524;55.434;38.520;2023-05-13T02:55:38;100709.72;;;8.17;59.51
47761;BME280;33524;55.434;38.520;2023-05-13T02:58:08;100711.81;;;8.26;60.40
47761;BME280;33524;55.434;38.520;2023-05-13T03:00:36;100712.84;;;8.54;55.94
47761;BME280;33524;55.434;38.520;2023-05-13T03:03:04;100699.28;;;8.47;57.00
47761;BME280;33524;55.434;38.520;2023-05-13T03:05:32;100708.41;;;8.71;55.11
47761;BME280;33524;55.434;38.520;2023-05-13T03:08:00;100707.75;;;8.96;54.11
47761;BME280;33524;55.434;38.520;2023-05-13T03:10:30;100712.06;;;8.97;57.01
47761;BME280;33524;55.434;38.520;2023-05-13T03:12:58;100711.59;;;9.19;54.24
47761;BME280;33524;55.434;38.520;2023-05-13T03:15:26;100717.88;;;9.31;55.36
47761;BME280;33524;55.434;38.520;2023-05-13T03:17:54;100722.75;;;9.37;59.48
47761;BME280;33524;55.434;38.520;2023-05-13T03:20:23;100708.66;;;9.52;52.24
47761;BME280;33524;55.434;38.520;2023-05-13T03:22:51;100710.16;;;9.83;52.56
47761;BME280;33524;55.434;38.520;2023-05-13T03:25:19;100722.09;;;10.02;51.46
47761;BME280;33524;55.434;38.520;2023-05-13T03:27:48;100712.19;;;10.20;51.49
47761;BME280;33524;55.434;38.520;2023-05-13T03:30:17;100717.31;;;10.36;53.47
47761;BME280;33524;55.434;38.520;2023-05-13T03:32:47;100715.44;;;10.50;51.62
47761;BME280;33524;55.434;38.520;2023-05-13T03:35:15;100712.41;;;10.69;51.31
47761;BME280;33524;55.434;38.520;2023-05-13T03:37:43;100722.19;;;10.93;49.93
47761;BME280;33524;55.434;38.520;2023-05-13T03:40:12;100729.97;;;11.20;49.65
47761;BME280;33524;55.434;38.520;2023-05-13T03:42:41;100724.03;;;11.42;48.85
47761;BME280;33524;55.434;38.520;2023-05-13T03:45:09;100727.38;;;11.57;51.69
47761;BME280;33524;55.434;38.520;2023-05-13T03:47:39;100713.12;;;11.73;48.20
47761;BME280;33524;55.434;38.520;2023-05-13T03:50:08;100738.28;;;11.89;54.93
47761;BME280;33524;55.434;38.520;2023-05-13T03:52:37;100739.75;;;11.81;52.78
47761;BME280;33524;55.434;38.520;2023-05-13T03:55:06;100717.38;;;11.99;52.97
47761;BME280;33524;55.434;38.520;2023-05-13T03:57:34;100723.94;;;12.29;52.69
47761;BME280;33524;55.434;38.520;2023-05-13T04:00:02;100733.38;;;11.96;54.58
47761;BME280;33524;55.434;38.520;2023-05-13T04:02:41;100739.56;;;12.67;50.70
47761;BME280;33524;55.434;38.520;2023-05-13T04:05:11;100733.28;;;13.38;47.99
47761;BME280;33524;55.434;38.520;2023-05-13T04:07:40;100737.44;;;13.74;46.60
47761;BME280;33524;55.434;38.520;2023-05-13T04:10:09;100730.12;;;14.10;46.72
47761;BME280;33524;55.434;38.520;2023-05-13T04:12:42;100735.47;;;14.20;47.38
47761;BME280;33524;55.434;38.520;2023-05-13T04:15:10;100736.59;;;14.17;48.36
47761;BME280;33524;55.434;38.520;2023-05-13T04:17:38;100742.09;;;14.25;48.20
47761;BME280;33524;55.434;38.520;2023-05-13T04:20:07;100742.47;;;14.95;46.69
47761;BME280;33524;55.434;38.520;2023-05-13T04:22:35;100740.78;;;14.94;47.00
47761;BME280;33524;55.434;38.520;2023-05-13T04:25:03;100736.28;;;15.46;46.50
47761;BME280;33524;55.434;38.520;2023-05-13T04:27:32;100713.22;;;15.97;45.69
47761;BME280;33524;55.434;38.520;2023-05-13T04:30:00;100735.06;;;15.20;46.01
47761;BME280;33524;55.434;38.520;2023-05-13T04:32:31;100732.41;;;15.60;45.78
47761;BME280;33524;55.434;38.520;2023-05-13T04:35:00;100737.66;;;16.59;44.77
47761;BME280;33524;55.434;38.520;2023-05-13T04:37:29;100731.41;;;16.21;44.11
47761;BME280;33524;55.434;38.520;2023-05-13T04:39:57;100736.13;;;16.66;45.20
47761;BME280;33524;55.434;38.520;2023-05-13T04:42:26;100738.44;;;17.36;44.32
47761;BME280;33524;55.434;38.520;2023-05-13T04:44:54;100735.75;;;17.08;40.88
47761;BME280;33524;55.434;38.520;2023-05-13T04:47:22;100737.41;;;17.74;40.95
47761;BME280;33524;55.434;38.520;2023-05-13T04:49:51;100733.50;;;18.50;43.19
47761;BME280;33524;55.434;38.520;2023-05-13T04:52:19;100737.41;;;17.74;39.52
47761;BME280;33524;55.434;38.520;2023-05-13T04:54:47;100725.59;;;17.87;45.16
47761;BME280;33524;55.434;38.520;2023-05-13T04:57:16;100736.78;;;17.63;44.56
47761;BME280;33524;55.434;38.520;2023-05-13T04:59:44;100723.16;;;18.73;41.40
47761;BME280;33524;55.434;38.520;2023-05-13T05:02:13;100725.59;;;19.11;43.19
47761;BME280;33524;55.434;38.520;2023-05-13T05:04:43;100727.69;;;18.99;43.24
47761;BME280;33524;55.434;38.520;2023-05-13T05:07:12;100711.66;;;17.47;38.40
47761;BME280;33524;55.434;38.520;2023-05-13T05:09:40;100734.72;;;17.84;43.65
47761;BME280;33524;55.434;38.520;2023-05-13T05:12:09;100727.97;;;19.65;42.71
47761;BME280;33524;55.434;38.520;2023-05-13T05:14:38;100726.38;;;18.77;44.31
47761;BME280;33524;55.434;38.520;2023-05-13T05:17:07;100725.44;;;20.47;41.38
47761;BME280;33524;55.434;38.520;2023-05-13T05:19:35;100724.59;;;20.79;40.79
47761;BME280;33524;55.434;38.520;2023-05-13T05:22:04;100723.69;;;21.11;40.58
47761;BME280;33524;55.434;38.520;2023-05-13T05:24:32;100725.59;;;20.86;40.50
47761;BME280;33524;55.434;38.520;2023-05-13T05:27:02;100720.41;;;20.03;39.44
47761;BME280;33524;55.434;38.520;2023-05-13T05:29:30;100729.69;;;21.13;40.79
47761;BME280;33524;55.434;38.520;2023-05-13T05:31:59;100723.00;;;21.88;39.52
47761;BME280;33524;55.434;38.520;2023-05-13T05:34:28;100720.94;;;21.28;41.02
47761;BME280;33524;55.434;38.520;2023-05-13T05:36:56;100711.81;;;22.54;39.03
47761;BME280;33524;55.434;38.520;2023-05-13T05:39:24;100716.16;;;21.15;35.06
47761;BME280;33524;55.434;38.520;2023-05-13T05:41:53;100715.69;;;21.03;41.73
47761;BME280;33524;55.434;38.520;2023-05-13T05:44:21;100705.59;;;23.06;38.75
47761;BME280;33524;55.434;38.520;2023-05-13T05:46:49;100713.94;;;23.11;37.23
47761;BME280;33524;55.434;38.520;2023-05-13T05:49:19;100716.69;;;23.33;38.65
47761;BME280;33524;55.434;38.520;2023-05-13T05:51:48;100712.84;;;23.93;36.39
47761;BME280;33524;55.434;38.520;2023-05-13T05:54:16;100727.59;;;21.48;41.95
47761;BME280;33524;55.434;38.520;2023-05-13T05:56:44;100717.41;;;21.75;33.34
47761;BME280;33524;55.434;38.520;2023-05-13T05:59:12;100711.97;;;23.05;37.42
47761;BME280;33524;55.434;38.520;2023-05-13T06:01:41;100713.62;;;24.09;37.41
47761;BME280;33524;55.434;38.520;2023-05-13T06:04:09;100715.53;;;24.15;37.70
47761;BME280;33524;55.434;38.520;2023-05-13T06:06:37;100715.94;;;25.25;33.18
47761;BME280;33524;55.434;38.520;2023-05-13T06:09:07;100716.69;;;25.47;33.18
47761;BME280;33524;55.434;38.520;2023-05-13T06:11:35;100710.41;;;26.08;35.08
47761;BME280;33524;55.434;38.520;2023-05-13T06:14:03;100718.34;;;25.13;34.42
47761;BME280;33524;55.434;38.520;2023-05-13T06:16:31;100714.19;;;25.10;37.48
47761;BME280;33524;55.434;38.520;2023-05-13T06:19:00;100698.37;;;25.97;35.85
47761;BME280;33524;55.434;38.520;2023-05-13T06:21:28;100712.97;;;24.07;37.39
47761;BME280;33524;55.434;38.520;2023-05-13T06:23:58;100720.53;;;23.45;32.07
47761;BME280;33524;55.434;38.520;2023-05-13T06:26:26;100714.38;;;23.30;40.23
47761;BME280;33524;55.434;38.520;2023-05-13T06:28:54;100712.13;;;24.77;37.06
47761;BME280;33524;55.434;38.520;2023-05-13T06:31:23;100703.38;;;26.33;35.21
47761;BME280;33524;55.434;38.520;2023-05-13T06:33:51;100700.38;;;27.02;34.52
47761;BME280;33524;55.434;38.520;2023-05-13T06:36:19;100701.91;;;26.37;31.54
47761;BME280;33524;55.434;38.520;2023-05-13T06:38:47;100699.66;;;26.61;35.46
47761;BME280;33524;55.434;38.520;2023-05-13T06:41:15;100704.69;;;25.69;35.41
47761;BME280;33524;55.434;38.520;2023-05-13T06:43:43;100702.63;;;25.71;37.29
47761;BME280;33524;55.434;38.520;2023-05-13T06:46:14;100709.38;;;23.78;38.85
47761;BME280;33524;55.434;38.520;2023-05-13T06:48:42;100696.66;;;25.76;35.98
47761;BME280;33524;55.434;38.520;2023-05-13T06:51:13;100704.87;;;24.78;36.90
47761;BME280;33524;55.434;38.520;2023-05-13T06:53:41;100703.22;;;25.53;30.37
47761;BME280;33524;55.434;38.520;2023-05-13T06:56:10;100696.94;;;26.08;34.68
47761;BME280;33524;55.434;38.520;2023-05-13T06:58:38;100693.81;;;25.97;29.19
47761;BME280;33524;55.434;38.520;2023-05-13T07:01:06;100691.31;;;27.93;25.37
47761;BME280;33524;55.434;38.520;2023-05-13T07:03:34;100698.00;;;24.19;28.80
47761;BME280;33524;55.434;38.520;2023-05-13T07:06:03;100699.22;;;23.07;30.97
47761;BME280;33524;55.434;38.520;2023-05-13T07:08:31;100702.44;;;23.84;27.81
47761;BME280;33524;55.434;38.520;2023-05-13T07:11:03;100696.16;;;24.20;26.47
47761;BME280;33524;55.434;38.520;2023-05-13T07:13:31;100691.53;;;24.13;37.33
47761;BME280;33524;55.434;38.520;2023-05-13T07:16:01;100698.66;;;21.75;28.57
47761;BME280;33524;55.434;38.520;2023-05-13T07:18:30;100691.16;;;21.70;29.20
47761;BME280;33524;55.434;38.520;2023-05-13T07:20:58;100691.34;;;26.43;35.20
47761;BME280;33524;55.434;38.520;2023-05-13T07:23:26;100695.91;;;26.35;31.03
47761;BME280;33524;55.434;38.520;2023-05-13T07:25:55;100693.78;;;23.88;28.92
47761;BME280;33524;55.434;38.520;2023-05-13T07:28:23;100694.00;;;22.76;27.93
47761;BME280;33524;55.434;38.520;2023-05-13T07:30:51;100703.00;;;20.97;27.99
47761;BME280;33524;55.434;38.520;2023-05-13T07:33:20;100696.94;;;21.11;27.36
47761;BME280;33524;55.434;38.520;2023-05-13T07:35:48;100700.31;;;23.13;38.91
47761;BME280;33524;55.434;38.520;2023-05-13T07:38:16;100685.19;;;23.56;36.58
47761;BME280;33524;55.434;38.520;2023-05-13T07:40:45;100696.12;;;22.28;28.95
47761;BME280;33524;55.434;38.520;2023-05-13T07:43:13;100701.84;;;21.31;26.95
47761;BME280;33524;55.434;38.520;2023-05-13T07:45:44;100699.06;;;20.60;27.81
47761;BME280;33524;55.434;38.520;2023-05-13T07:48:13;100699.41;;;20.65;28.71
47761;BME280;33524;55.434;38.520;2023-05-13T07:50:41;100692.19;;;21.92;27.73
47761;BME280;33524;55.434;38.520;2023-05-13T07:53:09;100705.03;;;20.87;27.23
47761;BME280;33524;55.434;38.520;2023-05-13T07:55:37;100700.06;;;20.75;26.71
47761;BME280;33524;55.434;38.520;2023-05-13T07:58:06;100695.88;;;20.48;27.11
47761;BME280;33524;55.434;38.520;2023-05-13T08:00:34;100700.22;;;20.66;26.96
47761;BME280;33524;55.434;38.520;2023-05-13T08:03:02;100696.31;;;20.93;27.00
47761;BME280;33524;55.434;38.520;2023-05-13T08:05:30;100685.38;;;21.59;26.13
47761;BME280;33524;55.434;38.520;2023-05-13T08:07:58;100681.81;;;23.18;35.52
47761;BME280;33524;55.434;38.520;2023-05-13T08:10:27;100684.94;;;22.92;32.79
47761;BME280;33524;55.434;38.520;2023-05-13T08:12:55;100686.94;;;22.45;24.75
47761;BME280;33524;55.434;38.520;2023-05-13T08:15:25;100682.00;;;24.89;30.28
47761;BME280;33524;55.434;38.520;2023-05-13T08:17:54;100692.09;;;24.30;29.72
47761;BME280;33524;55.434;38.520;2023-05-13T08:20:22;100688.81;;;24.07;23.80
47761;BME280;33524;55.434;38.520;2023-05-13T08:22:57;100691.13;;;22.25;25.63
47761;BME280;33524;55.434;38.520;2023-05-13T08:25:25;100685.06;;;22.08;26.39
47761;BME280;33524;55.434;38.520;2023-05-13T08:27:53;100686.81;;;24.15;25.91
47761;BME280;33524;55.434;38.520;2023-05-13T08:30:21;100688.59;;;21.54;25.24
47761;BME280;33524;55.434;38.520;2023-05-13T08:32:49;100677.53;;;23.39;33.05
47761;BME280;33524;55.434;38.520;2023-05-13T08:35:17;100679.97;;;22.74;25.01
47761;BME280;33524;55.434;38.520;2023-05-13T08:37:46;100676.91;;;24.44;24.37
47761;BME280;33524;55.434;38.520;2023-05-13T08:40:14;100684.31;;;23.20;26.44
47761;BME280;33524;55.434;38.520;2023-05-13T08:42:44;100668.53;;;23.46;24.01
47761;BME280;33524;55.434;38.520;2023-05-13T08:45:15;100669.50;;;22.94;24.28
47761;BME280;33524;55.434;38.520;2023-05-13T08:47:59;100669.34;;;21.82;23.96
47761;BME280;33524;55.434;38.520;2023-05-13T08:50:30;100672.59;;;25.13;24.36
47761;BME280;33524;55.434;38.520;2023-05-13T08:52:58;100669.56;;;26.57;29.10
47761;BME280;33524;55.434;38.520;2023-05-13T08:55:27;100675.03;;;25.49;24.53
47761;BME280;33524;55.434;38.520;2023-05-13T08:57:55;100661.81;;;22.91;23.94
47761;BME280;33524;55.434;38.520;2023-05-13T09:00:23;100663.41;;;24.09;22.25
47761;BME280;33524;55.434;38.520;2023-05-13T09:02:52;100665.84;;;22.42;26.49
47761;BME280;33524;55.434;38.520;2023-05-13T09:05:20;100671.37;;;24.24;28.17
47761;BME280;33524;55.434;38.520;2023-05-13T09:07:50;100665.44;;;24.57;23.99
47761;BME280;33524;55.434;38.520;2023-05-13T09:10:19;100657.56;;;24.55;21.43
47761;BME280;33524;55.434;38.520;2023-05-13T09:15:22;100647.53;;;26.87;27.99
47761;BME280;33524;55.434;38.520;2023-05-13T09:18:00;100657.91;;;25.15;23.21
47761;BME280;33524;55.434;38.520;2023-05-13T09:20:46;100644.22;;;26.78;21.28
47761;BME280;33524;55.434;38.520;2023-05-13T09:23:16;100639.63;;;25.52;21.72
47761;BME280;33524;55.434;38.520;2023-05-13T09:25:45;100646.31;;;23.01;32.59
47761;BME280;33524;55.434;38.520;2023-05-13T09:28:13;100649.81;;;21.96;22.56
47761;BME280;33524;55.434;38.520;2023-05-13T09:30:42;100645.56;;;23.59;23.25
47761;BME280;33524;55.434;38.520;2023-05-13T09:33:15;100638.50;;;22.09;26.46
47761;BME280;33524;55.434;38.520;2023-05-13T09:35:53;100642.34;;;25.72;26.01
47761;BME280;33524;55.434;38.520;2023-05-13T09:38:26;100628.31;;;26.04;26.33
47761;BME280;33524;55.434;38.520;2023-05-13T09:41:00;100626.53;;;25.36;24.72
47761;BME280;33524;55.434;38.520;2023-05-13T09:43:32;100633.00;;;23.44;24.00
47761;BME280;33524;55.434;38.520;2023-05-13T09:46:03;100640.91;;;22.56;22.83
47761;BME280;33524;55.434;38.520;2023-05-13T09:48:32;100633.94;;;23.94;21.48
47761;BME280;33524;55.434;38.520;2023-05-13T09:51:01;100633.00;;;22.78;22.92
47761;BME280;33524;55.434;38.520;2023-05-13T09:53:30;100634.38;;;21.83;23.94
47761;BME280;33524;55.434;38.520;2023-05-13T09:55:59;100631.13;;;24.59;33.50
47761;BME280;33524;55.434;38.520;2023-05-13T09:58:29;100627.22;;;24.62;27.44
47761;BME280;33524;55.434;38.520;2023-05-13T10:00:57;100624.91;;;22.33;23.32
47761;BME280;33524;55.434;38.520;2023-05-13T10:03:27;100622.06;;;24.60;21.69
47761;BME280;33524;55.434;38.520;2023-05-13T10:05:57;100631.97;;;21.42;22.26
47761;BME280;33524;55.434;38.520;2023-05-13T10:08:30;100631.16;;;21.65;24.64
47761;BME280;33524;55.434;38.520;2023-05-13T10:10:58;100615.03;;;21.10;23.32
47761;BME280;33524;55.434;38.520;2023-05-13T10:13:27;100626.72;;;22.18;24.68
47761;BME280;33524;55.434;38.520;2023-05-13T10:15:58;100615.03;;;22.49;22.54
47761;BME280;33524;55.434;38.520;2023-05-13T10:18:27;100619.59;;;22.78;20.92
47761;BME280;33524;55.434;38.520;2023-05-13T10:20:55;100626.94;;;22.31;22.76
47761;BME280;33524;55.434;38.520;2023-05-13T10:23:25;100604.97;;;21.75;22.76
47761;BME280;33524;55.434;38.520;2023-05-13T10:25:54;100611.53;;;22.48;27.67
47761;BME280;33524;55.434;38.520;2023-05-13T10:28:24;100612.31;;;23.81;23.01
47761;BME280;33524;55.434;38.520;2023-05-13T10:30:52;100615.66;;;22.51;21.90
47761;BME280;33524;55.434;38.520;2023-05-13T10:33:21;100620.19;;;21.98;21.69
47761;BME280;33524;55.434;38.520;2023-05-13T10:44:33;100614.38;;;22.91;22.08
47761;BME280;33524;55.434;38.520;2023-05-13T10:47:02;100608.56;;;25.50;20.16
47761;BME280;33524;55.434;38.520;2023-05-13T10:49:34;100604.78;;;27.29;23.30
47761;BME280;33524;55.434;38.520;2023-05-13T10:52:13;100604.56;;;23.50;21.02
47761;BME280;33524;55.434;38.520;2023-05-13T10:54:41;100605.78;;;22.81;23.61
47761;BME280;33524;55.434;38.520;2023-05-13T10:57:12;100622.31;;;22.02;22.32
47761;BME280;33524;55.434;38.520;2023-05-13T11:00:12;100611.50;;;21.49;22.85
47761;BME280;33524;55.434;38.520;2023-05-13T11:02:41;100609.13;;;22.83;29.44
47761;BME280;33524;55.434;38.520;2023-05-13T11:05:18;100603.63;;;25.05;22.09
47761;BME280;33524;55.434;38.520;2023-05-13T11:07:57;100603.19;;;25.70;19.68
47761;BME280;33524;55.434;38.520;2023-05-13T11:10:28;100599.50;;;22.89;22.00
47761;BME280;33524;55.434;38.520;2023-05-13T11:13:35;100594.06;;;25.51;23.80
47761;BME280;33524;55.434;38.520;2023-05-13T11:16:05;100605.03;;;23.96;21.93
47761;BME280;33524;55.434;38.520;2023-05-13T11:18:35;100576.84;;;29.58;22.44
47761;BME280;33524;55.434;38.520;2023-05-13T11:21:04;100590.56;;;24.54;21.59
47761;BME280;33524;55.434;38.520;2023-05-13T11:23:56;100592.78;;;24.85;20.91
47761;BME280;33524;55.434;38.520;2023-05-13T11:26:25;100585.16;;;23.11;22.69
47761;BME280;33524;55.434;38.520;2023-05-13T11:29:05;100584.69;;;23.87;22.31
47761;BME280;33524;55.434;38.520;2023-05-13T11:31:45;100586.41;;;23.30;22.86
47761;BME280;33524;55.434;38.520;2023-05-13T11:34:16;100585.44;;;23.02;23.83
47761;BME280;33524;55.434;38.520;2023-05-13T11:36:49;100585.66;;;22.03;24.21
47761;BME280;33524;55.434;38.520;2023-05-13T11:39:20;100585.28;;;22.29;24.81
47761;BME280;33524;55.434;38.520;2023-05-13T11:41:50;100577.00;;;22.90;26.33
47761;BME280;33524;55.434;38.520;2023-05-13T11:44:21;100575.63;;;23.09;23.54
47761;BME280;33524;55.434;38.520;2023-05-13T11:46:52;100574.62;;;24.24;24.02
47761;BME280;33524;55.434;38.520;2023-05-13T11:52:13;100574.56;;;22.59;25.08
47761;BME280;33524;55.434;38.520;2023-05-13T11:54:53;100567.28;;;24.40;22.87
47761;BME280;33524;55.434;38.520;2023-05-13T11:57:27;100576.63;;;23.66;22.14
47761;BME280;33524;55.434;38.520;2023-05-13T12:00:02;100561.22;;;24.31;22.47
47761;BME280;33524;55.434;38.520;2023-05-13T12:02:35;100568.34;;;24.45;22.43
47761;BME280;33524;55.434;38.520;2023-05-13T12:05:07;100569.28;;;24.31;25.06
47761;BME280;33524;55.434;38.520;2023-05-13T12:07:40;100566.50;;;23.03;22.52
47761;BME280;33524;55.434;38.520;2023-05-13T12:10:09;100566.19;;;23.99;22.72
47761;BME280;33524;55.434;38.520;2023-05-13T12:12:39;100556.97;;;25.33;21.36
47761;BME280;33524;55.434;38.520;2023-05-13T12:15:26;100562.56;;;23.64;22.41
47761;BME280;33524;55.434;38.520;2023-05-13T12:17:55;100563.38;;;23.21;23.12
47761;BME280;33524;55.434;38.520;2023-05-13T12:20:25;100551.88;;;22.91;23.98
47761;BME280;33524;55.434;38.520;2023-05-13T12:22:54;100555.13;;;24.44;27.51
47761;BME280;33524;55.434;38.520;2023-05-13T12:25:45;100539.16;;;25.45;22.19
47761;BME280;33524;55.434;38.520;2023-05-13T12:28:17;100538.50;;;26.30;21.22
47761;BME280;33524;55.434;38.520;2023-05-13T12:36:26;100533.25;;;27.45;19.37
47761;BME280;33524;55.434;38.520;2023-05-13T12:39:07;100539.22;;;26.77;19.29
47761;BME280;33524;55.434;38.520;2023-05-13T12:41:50;100540.97;;;26.31;19.70
47761;BME280;33524;55.434;38.520;2023-05-13T12:44:21;100537.91;;;26.21;20.06
47761;BME280;33524;55.434;38.520;2023-05-13T12:46:51;100530.88;;;26.78;18.94
47761;BME280;33524;55.434;38.520;2023-05-13T12:49:20;100521.22;;;27.03;19.12
47761;BME280;33524;55.434;38.520;2023-05-13T12:51:49;100525.16;;;27.95;18.82
47761;BME280;33524;55.434;38.520;2023-05-13T12:54:39;100532.91;;;27.28;18.74
47761;BME280;33524;55.434;38.520;2023-05-13T12:57:08;100538.19;;;27.10;18.18
47761;BME280;33524;55.434;38.520;2023-05-13T12:59:37;100529.06;;;27.49;18.31
47761;BME280;33524;55.434;38.520;2023-05-13T13:02:06;100536.69;;;27.77;18.98
47761;BME280;33524;55.434;38.520;2023-05-13T13:04:34;100535.91;;;28.76;17.77
47761;BME280;33524;55.434;38.520;2023-05-13T13:07:02;100527.41;;;28.72;16.93
47761;BME280;33524;55.434;38.520;2023-05-13T13:09:31;100534.78;;;28.28;17.10
47761;BME280;33524;55.434;38.520;2023-05-13T13:12:00;100540.06;;;28.60;16.99
47761;BME280;33524;55.434;38.520;2023-05-13T13:14:28;100524.47;;;26.80;17.71
47761;BME280;33524;55.434;38.520;2023-05-13T13:16:56;100532.16;;;28.58;17.38
47761;BME280;33524;55.434;38.520;2023-05-13T13:19:25;100517.47;;;29.69;16.15
47761;BME280;33524;55.434;38.520;2023-05-13T13:21:53;100522.75;;;30.58;15.43
47761;BME280;33524;55.434;38.520;2023-05-13T13:24:21;100530.50;;;29.36;16.05
47761;BME280;33524;55.434;38.520;2023-05-13T13:26:50;100532.00;;;29.02;16.57